createdAt,value
2022-08-05T00:02:52.189Z,18.8
2022-08-05T00:12:56.333Z,18.7
2022-08-05T00:22:52.298Z,18.6
2022-08-05T00:32:52.765Z,18.6
2022-08-05T00:42:53.083Z,18.5
2022-08-05T00:52:53.594Z,18.4
2022-08-05T01:02:54.656Z,18.4
2022-08-05T01:13:05.021Z,18.1
2022-08-05T01:32:56.335Z,17.9
2022-08-05T01:42:57.425Z,17.8
2022-08-05T01:52:57.606Z,17.6
2022-08-05T02:02:58.325Z,17.5
2022-08-05T02:12:58.814Z,17.4
2022-08-05T02:22:59.649Z,17.4
2022-08-05T02:32:59.699Z,17.4
2022-08-05T02:43:00.438Z,17.3
2022-08-05T02:53:01.195Z,17.4
2022-08-05T03:03:01.743Z,17.4
2022-08-05T03:23:02.894Z,17.3
2022-08-05T03:33:03.709Z,17.2
2022-08-05T03:43:16.116Z,17.1
2022-08-05T03:54:59.887Z,17
2022-08-05T04:03:05.694Z,17
2022-08-05T04:23:06.995Z,17
2022-08-05T04:33:07.681Z,16.9
2022-08-05T04:43:10.930Z,16.7
2022-08-05T05:03:10.163Z,16.6
2022-08-05T05:13:10.721Z,16.7
2022-08-05T05:23:19.670Z,16.7
2022-08-05T05:33:16.344Z,16.8
2022-08-05T05:43:12.752Z,16.8
2022-08-05T05:53:21.669Z,16.8
2022-08-05T06:03:28.422Z,16.7
2022-08-05T06:13:14.052Z,16.8
2022-08-05T06:23:14.592Z,16.7
2022-08-05T06:33:15.018Z,16.8
2022-08-05T06:43:51.857Z,16.7
2022-08-05T07:03:17.162Z,16.6
2022-08-05T07:13:17.599Z,16.5
2022-08-05T07:23:26.192Z,16.5
2022-08-05T07:33:18.530Z,16.4
2022-08-05T07:53:20.092Z,16.5
2022-08-05T08:13:29.276Z,16.4
2022-08-05T08:24:00.523Z,16.3
2022-08-05T08:33:22.976Z,16.3
2022-08-05T08:44:57.917Z,16.4
2022-08-05T08:53:24.866Z,16.4
2022-08-05T09:03:25.608Z,16.4
2022-08-05T09:13:31.380Z,16.5
2022-08-05T09:23:27.132Z,16.4
2022-08-05T09:33:31.760Z,16.4
2022-08-05T09:43:27.450Z,16.6
2022-08-05T09:53:53.098Z,16.7
2022-08-05T10:03:38.804Z,16.8
2022-08-05T10:13:31.527Z,17
2022-08-05T10:23:34.912Z,17.4
2022-08-05T10:33:30.191Z,17.8
2022-08-05T11:03:33.649Z,19.1
2022-08-05T11:13:33.564Z,19.5
2022-08-05T11:24:03.692Z,19.6
2022-08-05T11:33:34.686Z,19.5
2022-08-05T11:53:40.809Z,20.6
2022-08-05T12:03:36.225Z,20.8
2022-08-05T12:13:48.250Z,20.6
2022-08-05T12:53:38.858Z,21
2022-08-05T13:23:51.017Z,20.6
2022-08-05T13:34:20.817Z,20.7
2022-08-05T13:43:43.795Z,21.3
2022-08-05T13:53:47.591Z,21.3
2022-08-05T14:03:42.785Z,21.6
2022-08-05T14:13:43.596Z,22.1
2022-08-05T14:23:44.201Z,22.8
2022-08-05T14:33:56.836Z,23.2
2022-08-05T14:53:45.501Z,22.8
2022-08-05T15:03:46.558Z,23.1
2022-08-05T15:13:50.280Z,23
2022-08-05T15:23:48.056Z,22.8
2022-08-05T15:43:49.244Z,22.8
2022-08-05T15:53:50.469Z,22.4
2022-08-05T16:03:50.684Z,22.2
2022-08-05T16:13:50.713Z,21.9
2022-08-05T16:23:53.089Z,21.8
2022-08-05T16:33:51.806Z,21.5
2022-08-05T16:43:56.209Z,21.5
2022-08-05T16:54:03.678Z,21.2
2022-08-05T17:03:53.426Z,21.1
2022-08-05T17:13:54.835Z,21
2022-08-05T17:24:04.194Z,20.8
2022-08-05T17:33:54.540Z,20.7
2022-08-05T17:43:55.091Z,20.6
2022-08-05T17:53:56.082Z,20.3
2022-08-05T18:23:58.030Z,19.7
2022-08-05T18:33:58.125Z,19.5
2022-08-05T18:43:58.283Z,19.3
2022-08-05T18:53:58.874Z,19
2022-08-05T19:03:59.604Z,18.8
2022-08-05T19:14:00.819Z,18.6
2022-08-05T19:24:04.820Z,18.2
2022-08-05T19:34:00.981Z,17.8
2022-08-05T19:44:05.007Z,17.5
2022-08-05T19:54:03.239Z,17.3
2022-08-05T20:04:03.446Z,17
2022-08-05T20:14:12.889Z,16.6
2022-08-05T20:24:05.033Z,16.6
2022-08-05T20:44:15.032Z,16.2
2022-08-05T20:54:06.814Z,16
2022-08-05T21:14:08.176Z,16.2
2022-08-05T21:24:08.374Z,16
2022-08-05T21:34:10.490Z,15.7
2022-08-05T22:24:13.103Z,14.3
2022-08-05T22:34:12.832Z,13.9
2022-08-05T22:44:13.470Z,13.7
2022-08-05T22:54:13.580Z,13.4
2022-08-05T23:14:15.162Z,12.8
2022-08-05T23:24:15.468Z,12.6
2022-08-05T23:34:15.736Z,12.3
2022-08-05T23:44:16.574Z,12.1
2022-08-05T23:54:17.598Z,11.9
